EZY04NC EGPH-LFPG
Flight info
| Callsign | EZY04NC |
|---|---|
| Flight time | 1h 21m |
| Altitude | 37000 |
| Route | GOSAM P600 FENIK L612 ELBUS UL612 WOD UM605 BIBAX |
| Aircraft | A20N/M-SDE2E3FGHIRWXY/LB1 |
Departure
| Time | 2026-05-05 13:40 |
|---|---|
| Airport | Edinburgh Airport (EGPH) |
Arrival
| Time | 2026-05-05 15:01 |
|---|---|
| Airport | Charles de Gaulle International Airport (LFPG) |
| Time | Latitude | Longitude | Altitude | Speed | Heading |
|---|---|---|---|---|---|
| 2026-05-05 13:09 | 55.94937 | -3.36354 | 105 ft | 0 kts | 148° |
| 2026-05-05 13:25 | 55.94938 | -3.36356 | 107 ft | 1 kts | 148° |
| 2026-05-05 13:26 | 55.94941 | -3.36359 | 106 ft | 0 kts | 147° |
| 2026-05-05 13:26 | 55.94946 | -3.36365 | 105 ft | 0 kts | 144° |
| 2026-05-05 13:26 | 55.94955 | -3.36377 | 103 ft | 2 kts | 139° |
| 2026-05-05 13:26 | 55.94961 | -3.36386 | 103 ft | 1 kts | 135° |
| 2026-05-05 13:27 | 55.94972 | -3.36406 | 105 ft | 2 kts | 126° |
| 2026-05-05 13:27 | 55.94980 | -3.36430 | 104 ft | 2 kts | 103° |
| 2026-05-05 13:27 | 55.94981 | -3.36458 | 104 ft | 2 kts | 83° |
| 2026-05-05 13:27 | 55.94978 | -3.36485 | 104 ft | 2 kts | 73° |
| 2026-05-05 13:28 | 55.94973 | -3.36511 | 106 ft | 2 kts | 55° |
| 2026-05-05 13:28 | 55.94973 | -3.36512 | 106 ft | 0 kts | 55° |
| 2026-05-05 13:34 | 55.94979 | -3.36492 | 104 ft | 0 kts | 60° |
| 2026-05-05 13:34 | 55.94979 | -3.36491 | 104 ft | 2 kts | 60° |
| 2026-05-05 13:34 | 55.95008 | -3.36418 | 106 ft | 9 kts | 54° |
| 2026-05-05 13:35 | 55.95061 | -3.36412 | 106 ft | 9 kts | 309° |
| 2026-05-05 13:35 | 55.95053 | -3.36523 | 106 ft | 10 kts | 239° |
| 2026-05-05 13:35 | 55.95012 | -3.36640 | 107 ft | 12 kts | 238° |
| 2026-05-05 13:35 | 55.94965 | -3.36776 | 105 ft | 14 kts | 239° |
| 2026-05-05 13:36 | 55.94912 | -3.36943 | 106 ft | 16 kts | 240° |
| 2026-05-05 13:36 | 55.94849 | -3.37123 | 107 ft | 18 kts | 238° |
| 2026-05-05 13:36 | 55.94783 | -3.37317 | 106 ft | 19 kts | 243° |
| 2026-05-05 13:36 | 55.94712 | -3.37524 | 107 ft | 20 kts | 239° |
| 2026-05-05 13:37 | 55.94638 | -3.37744 | 106 ft | 21 kts | 238° |
| 2026-05-05 13:37 | 55.94559 | -3.37982 | 105 ft | 23 kts | 239° |
| 2026-05-05 13:37 | 55.94473 | -3.38238 | 106 ft | 25 kts | 238° |
| 2026-05-05 13:37 | 55.94377 | -3.38507 | 107 ft | 26 kts | 240° |
| 2026-05-05 13:38 | 55.94301 | -3.38742 | 107 ft | 19 kts | 239° |
| 2026-05-05 13:38 | 55.94318 | -3.38899 | 107 ft | 11 kts | 328° |
| 2026-05-05 13:38 | 55.94326 | -3.38908 | 107 ft | 3 kts | 329° |
| 2026-05-05 13:38 | 55.94377 | -3.38962 | 108 ft | 12 kts | 329° |
| 2026-05-05 13:39 | 55.94431 | -3.38927 | 108 ft | 6 kts | 59° |
| 2026-05-05 13:39 | 55.94458 | -3.38846 | 108 ft | 14 kts | 59° |
| 2026-05-05 13:39 | 55.94622 | -3.38359 | 107 ft | 81 kts | 58° |
| 2026-05-05 13:39 | 55.95022 | -3.37190 | 107 ft | 137 kts | 58° |
| 2026-05-05 13:40 | 55.95566 | -3.35625 | 571 ft | 144 kts | 60° |
| 2026-05-05 13:40 | 55.96087 | -3.34161 | 1445 ft | 137 kts | 52° |
| 2026-05-05 13:40 | 55.96748 | -3.32871 | 2059 ft | 147 kts | 45° |
| 2026-05-05 13:40 | 55.97518 | -3.31553 | 2608 ft | 159 kts | 41° |
| 2026-05-05 13:41 | 55.98390 | -3.30216 | 3180 ft | 175 kts | 38° |
| 2026-05-05 13:41 | 55.99443 | -3.28814 | 3542 ft | 201 kts | 31° |
| 2026-05-05 13:41 | 56.00821 | -3.27968 | 4151 ft | 220 kts | 2° |
| 2026-05-05 13:41 | 56.02343 | -3.28460 | 4974 ft | 228 kts | 336° |
| 2026-05-05 13:42 | 56.03621 | -3.30078 | 5489 ft | 223 kts | 311° |
| 2026-05-05 13:42 | 56.04362 | -3.32441 | 5775 ft | 222 kts | 288° |
| 2026-05-05 13:42 | 56.04514 | -3.35153 | 6129 ft | 219 kts | 263° |
| 2026-05-05 13:42 | 56.04011 | -3.37766 | 6495 ft | 233 kts | 242° |
| 2026-05-05 13:43 | 56.03056 | -3.40225 | 7156 ft | 244 kts | 235° |
| 2026-05-05 13:43 | 56.02057 | -3.42660 | 8123 ft | 240 kts | 243° |
| 2026-05-05 13:43 | 56.01317 | -3.45211 | 9356 ft | 222 kts | 252° |
| 2026-05-05 13:43 | 56.00896 | -3.47802 | 10371 ft | 216 kts | 261° |
| 2026-05-05 13:44 | 56.00618 | -3.50463 | 11080 ft | 219 kts | 263° |
| 2026-05-05 13:44 | 56.00226 | -3.53105 | 11795 ft | 225 kts | 244° |
| 2026-05-05 13:44 | 55.99147 | -3.55213 | 12359 ft | 245 kts | 216° |
| 2026-05-05 13:44 | 55.97445 | -3.56267 | 12610 ft | 278 kts | 188° |
| 2026-05-05 13:45 | 55.95421 | -3.56006 | 12865 ft | 307 kts | 173° |
| 2026-05-05 13:45 | 55.93249 | -3.55214 | 13121 ft | 330 kts | 172° |
| 2026-05-05 13:45 | 55.90921 | -3.54423 | 13359 ft | 351 kts | 174° |
| 2026-05-05 13:45 | 55.88468 | -3.53773 | 13893 ft | 360 kts | 176° |
| 2026-05-05 13:46 | 55.85978 | -3.53240 | 14625 ft | 362 kts | 177° |
| 2026-05-05 13:46 | 55.83459 | -3.52770 | 15306 ft | 365 kts | 178° |
| 2026-05-05 13:46 | 55.80927 | -3.52329 | 16017 ft | 368 kts | 178° |
| 2026-05-05 13:46 | 55.78358 | -3.51893 | 16686 ft | 372 kts | 178° |
| 2026-05-05 13:47 | 55.75769 | -3.51454 | 17370 ft | 375 kts | 178° |
| 2026-05-05 13:47 | 55.73163 | -3.51010 | 18048 ft | 378 kts | 178° |
| 2026-05-05 13:47 | 55.70568 | -3.50567 | 18638 ft | 382 kts | 178° |
| 2026-05-05 13:47 | 55.67910 | -3.50112 | 19220 ft | 385 kts | 178° |
| 2026-05-05 13:48 | 55.65238 | -3.49654 | 19799 ft | 387 kts | 178° |
| 2026-05-05 13:48 | 55.62545 | -3.49194 | 20378 ft | 390 kts | 178° |
| 2026-05-05 13:48 | 55.59832 | -3.48732 | 20933 ft | 393 kts | 177° |
| 2026-05-05 13:48 | 55.57101 | -3.48265 | 21498 ft | 396 kts | 177° |
| 2026-05-05 13:49 | 55.54345 | -3.47794 | 22037 ft | 399 kts | 177° |
| 2026-05-05 13:49 | 55.52472 | -3.47476 | 22411 ft | 401 kts | 177° |
| 2026-05-05 13:49 | 55.49683 | -3.47004 | 22958 ft | 404 kts | 177° |
| 2026-05-05 13:49 | 55.46872 | -3.46527 | 23499 ft | 407 kts | 177° |
| 2026-05-05 13:50 | 55.44045 | -3.46048 | 23953 ft | 410 kts | 177° |
| 2026-05-05 13:50 | 55.41237 | -3.45571 | 24425 ft | 412 kts | 177° |
| 2026-05-05 13:50 | 55.38371 | -3.45086 | 24873 ft | 414 kts | 177° |
| 2026-05-05 13:50 | 55.35498 | -3.44600 | 25324 ft | 416 kts | 177° |
| 2026-05-05 13:51 | 55.32607 | -3.44112 | 25772 ft | 419 kts | 177° |
| 2026-05-05 13:51 | 55.29700 | -3.43621 | 26197 ft | 421 kts | 177° |
| 2026-05-05 13:51 | 55.26780 | -3.43129 | 26619 ft | 423 kts | 177° |
| 2026-05-05 13:51 | 55.23848 | -3.42636 | 27024 ft | 425 kts | 177° |
| 2026-05-05 13:52 | 55.20899 | -3.42140 | 27420 ft | 427 kts | 177° |
| 2026-05-05 13:52 | 55.17931 | -3.41642 | 27809 ft | 429 kts | 177° |
| 2026-05-05 13:52 | 55.14953 | -3.41144 | 28185 ft | 431 kts | 177° |
| 2026-05-05 13:52 | 55.11965 | -3.40644 | 28558 ft | 433 kts | 177° |
| 2026-05-05 13:53 | 55.08956 | -3.40142 | 28919 ft | 434 kts | 177° |
| 2026-05-05 13:53 | 55.05942 | -3.39639 | 29254 ft | 436 kts | 178° |
| 2026-05-05 13:53 | 55.02908 | -3.39134 | 29591 ft | 438 kts | 178° |
| 2026-05-05 13:53 | 54.99865 | -3.38629 | 29938 ft | 440 kts | 178° |
| 2026-05-05 13:54 | 54.96817 | -3.38124 | 30249 ft | 441 kts | 178° |
| 2026-05-05 13:54 | 54.93748 | -3.37615 | 30552 ft | 443 kts | 178° |
| 2026-05-05 13:54 | 54.90678 | -3.37107 | 30826 ft | 444 kts | 178° |
| 2026-05-05 13:54 | 54.87591 | -3.36597 | 31126 ft | 446 kts | 178° |
| 2026-05-05 13:55 | 54.84510 | -3.36088 | 31487 ft | 445 kts | 178° |
| 2026-05-05 13:55 | 54.81432 | -3.35580 | 31878 ft | 444 kts | 178° |
| 2026-05-05 13:55 | 54.78363 | -3.35074 | 32251 ft | 443 kts | 178° |
| 2026-05-05 13:55 | 54.75299 | -3.34522 | 32586 ft | 443 kts | 175° |
| 2026-05-05 13:56 | 54.72262 | -3.33499 | 32932 ft | 446 kts | 169° |
| 2026-05-05 13:56 | 54.69332 | -3.31923 | 33264 ft | 448 kts | 163° |
| 2026-05-05 13:56 | 54.66453 | -3.29825 | 33595 ft | 449 kts | 160° |
| 2026-05-05 13:56 | 54.63593 | -3.27640 | 33907 ft | 449 kts | 160° |
| 2026-05-05 13:57 | 54.60729 | -3.25467 | 34199 ft | 448 kts | 160° |
| 2026-05-05 13:57 | 54.57874 | -3.23317 | 34424 ft | 448 kts | 160° |
| 2026-05-05 13:57 | 54.55011 | -3.21172 | 34656 ft | 449 kts | 160° |
| 2026-05-05 13:57 | 54.52146 | -3.19034 | 34858 ft | 449 kts | 160° |
| 2026-05-05 13:58 | 54.49276 | -3.16896 | 35063 ft | 449 kts | 160° |
| 2026-05-05 13:58 | 54.46409 | -3.14764 | 35276 ft | 449 kts | 160° |
| 2026-05-05 13:58 | 54.43539 | -3.12632 | 35479 ft | 449 kts | 160° |
| 2026-05-05 13:58 | 54.40668 | -3.10503 | 35660 ft | 450 kts | 159° |
| 2026-05-05 13:59 | 54.34912 | -3.06243 | 36032 ft | 450 kts | 159° |
| 2026-05-05 13:59 | 54.32040 | -3.04124 | 36229 ft | 450 kts | 159° |
| 2026-05-05 14:00 | 54.26275 | -2.99880 | 36594 ft | 451 kts | 159° |
| 2026-05-05 14:00 | 54.23395 | -2.97763 | 36771 ft | 451 kts | 159° |
| 2026-05-05 14:00 | 54.20510 | -2.95648 | 36943 ft | 451 kts | 159° |
| 2026-05-05 14:00 | 54.17678 | -2.93571 | 37636 ft | 436 kts | 159° |
| 2026-05-05 14:01 | 54.14885 | -2.91527 | 37745 ft | 439 kts | 159° |
| 2026-05-05 14:01 | 54.12035 | -2.89451 | 37321 ft | 451 kts | 159° |
| 2026-05-05 14:01 | 54.09144 | -2.87345 | 37016 ft | 450 kts | 159° |
| 2026-05-05 14:01 | 54.06277 | -2.85256 | 37024 ft | 448 kts | 159° |
| 2026-05-05 14:02 | 54.00522 | -2.81076 | 37021 ft | 450 kts | 159° |
| 2026-05-05 14:02 | 53.94805 | -2.76931 | 37019 ft | 450 kts | 159° |
| 2026-05-05 14:03 | 53.89046 | -2.72768 | 37022 ft | 450 kts | 159° |
| 2026-05-05 14:03 | 53.83284 | -2.68619 | 37018 ft | 450 kts | 159° |
| 2026-05-05 14:04 | 53.77531 | -2.64491 | 37015 ft | 449 kts | 159° |
| 2026-05-05 14:04 | 53.71774 | -2.60370 | 37011 ft | 449 kts | 159° |
| 2026-05-05 14:05 | 53.66020 | -2.56263 | 37012 ft | 449 kts | 159° |
| 2026-05-05 14:05 | 53.60264 | -2.52168 | 37009 ft | 449 kts | 159° |
| 2026-05-05 14:06 | 53.54504 | -2.48082 | 37010 ft | 449 kts | 159° |
| 2026-05-05 14:06 | 53.48740 | -2.44003 | 37015 ft | 449 kts | 159° |
| 2026-05-05 14:07 | 53.42982 | -2.39942 | 37016 ft | 449 kts | 159° |
| 2026-05-05 14:07 | 53.37217 | -2.35889 | 37015 ft | 449 kts | 159° |
| 2026-05-05 14:08 | 53.31446 | -2.31843 | 37018 ft | 449 kts | 159° |
| 2026-05-05 14:08 | 53.25707 | -2.27830 | 37017 ft | 449 kts | 159° |
| 2026-05-05 14:09 | 53.19935 | -2.23807 | 37014 ft | 449 kts | 159° |
| 2026-05-05 14:09 | 53.14159 | -2.19793 | 37011 ft | 450 kts | 159° |
| 2026-05-05 14:10 | 53.08380 | -2.15790 | 37005 ft | 450 kts | 159° |
| 2026-05-05 14:10 | 53.02597 | -2.11794 | 37004 ft | 450 kts | 159° |
| 2026-05-05 14:11 | 52.96809 | -2.07806 | 37000 ft | 450 kts | 159° |
| 2026-05-05 14:11 | 52.91021 | -2.03830 | 37020 ft | 450 kts | 159° |
| 2026-05-05 14:12 | 52.85231 | -1.99865 | 37020 ft | 450 kts | 159° |
| 2026-05-05 14:12 | 52.79431 | -1.95905 | 37015 ft | 450 kts | 159° |
| 2026-05-05 14:13 | 52.73642 | -1.91961 | 37023 ft | 450 kts | 159° |
| 2026-05-05 14:13 | 52.67897 | -1.88059 | 36986 ft | 449 kts | 159° |
| 2026-05-05 14:14 | 52.62139 | -1.84161 | 36986 ft | 447 kts | 159° |
| 2026-05-05 14:14 | 52.56381 | -1.80274 | 36999 ft | 447 kts | 159° |
| 2026-05-05 14:15 | 52.50633 | -1.76405 | 36993 ft | 446 kts | 159° |
| 2026-05-05 14:15 | 52.44890 | -1.72548 | 36991 ft | 446 kts | 159° |
| 2026-05-05 14:16 | 52.39140 | -1.68699 | 36990 ft | 445 kts | 159° |
| 2026-05-05 14:16 | 52.33505 | -1.64645 | 36986 ft | 446 kts | 154° |
| 2026-05-05 14:17 | 52.27970 | -1.60073 | 36991 ft | 445 kts | 154° |
| 2026-05-05 14:17 | 52.22441 | -1.55526 | 36986 ft | 445 kts | 154° |
| 2026-05-05 14:18 | 52.16909 | -1.51004 | 36996 ft | 445 kts | 155° |
| 2026-05-05 14:18 | 52.11381 | -1.46502 | 36992 ft | 444 kts | 155° |
| 2026-05-05 14:19 | 52.05853 | -1.42012 | 36985 ft | 444 kts | 155° |
| 2026-05-05 14:19 | 52.00327 | -1.37534 | 36967 ft | 444 kts | 155° |
| 2026-05-05 14:20 | 51.94803 | -1.33070 | 36963 ft | 443 kts | 155° |
| 2026-05-05 14:20 | 51.89276 | -1.28617 | 36972 ft | 444 kts | 155° |
| 2026-05-05 14:21 | 51.83730 | -1.24160 | 36963 ft | 443 kts | 155° |
| 2026-05-05 14:21 | 51.78223 | -1.19747 | 36971 ft | 442 kts | 155° |
| 2026-05-05 14:22 | 51.72705 | -1.15337 | 36965 ft | 442 kts | 155° |
| 2026-05-05 14:22 | 51.67193 | -1.10944 | 36965 ft | 442 kts | 155° |
| 2026-05-05 14:23 | 51.61724 | -1.06444 | 36967 ft | 442 kts | 150° |
| 2026-05-05 14:23 | 51.56692 | -1.00934 | 36962 ft | 442 kts | 146° |
| 2026-05-05 14:24 | 51.51682 | -0.95177 | 36968 ft | 442 kts | 146° |
| 2026-05-05 14:24 | 51.46666 | -0.89456 | 36961 ft | 442 kts | 145° |
| 2026-05-05 14:25 | 51.41966 | -0.83051 | 36960 ft | 443 kts | 139° |
| 2026-05-05 14:25 | 51.37435 | -0.76340 | 36964 ft | 443 kts | 139° |
| 2026-05-05 14:26 | 51.32889 | -0.69656 | 36966 ft | 443 kts | 139° |
| 2026-05-05 14:26 | 51.28332 | -0.62985 | 36967 ft | 443 kts | 139° |
| 2026-05-05 14:27 | 51.23775 | -0.56337 | 36965 ft | 443 kts | 139° |
| 2026-05-05 14:27 | 51.19219 | -0.49705 | 36959 ft | 443 kts | 139° |
| 2026-05-05 14:28 | 51.14686 | -0.43128 | 36947 ft | 443 kts | 139° |
| 2026-05-05 14:28 | 51.10126 | -0.36528 | 36947 ft | 443 kts | 139° |
| 2026-05-05 14:29 | 51.05564 | -0.29943 | 36945 ft | 443 kts | 139° |
| 2026-05-05 14:29 | 51.00990 | -0.23362 | 36946 ft | 442 kts | 139° |
| 2026-05-05 14:30 | 50.96426 | -0.16810 | 36938 ft | 442 kts | 139° |
| 2026-05-05 14:30 | 50.91870 | -0.10289 | 36936 ft | 441 kts | 139° |
| 2026-05-05 14:31 | 50.87306 | -0.03776 | 36938 ft | 441 kts | 139° |
| 2026-05-05 14:31 | 50.82772 | 0.02680 | 36934 ft | 441 kts | 139° |
| 2026-05-05 14:32 | 50.78203 | 0.09164 | 36932 ft | 441 kts | 139° |
| 2026-05-05 14:32 | 50.73524 | 0.15452 | 36895 ft | 441 kts | 142° |
| 2026-05-05 14:33 | 50.69553 | 0.20536 | 37111 ft | 436 kts | 142° |
| 2026-05-05 14:33 | 50.67224 | 0.23522 | 37592 ft | 432 kts | 142° |
| 2026-05-05 14:33 | 50.64862 | 0.26544 | 37261 ft | 441 kts | 142° |
| 2026-05-05 14:34 | 50.62469 | 0.29599 | 36929 ft | 442 kts | 142° |
| 2026-05-05 14:34 | 50.60088 | 0.32634 | 36930 ft | 440 kts | 142° |
| 2026-05-05 14:34 | 50.55319 | 0.38700 | 36924 ft | 442 kts | 142° |
| 2026-05-05 14:35 | 50.50546 | 0.44755 | 36712 ft | 440 kts | 142° |
| 2026-05-05 14:35 | 50.48163 | 0.47771 | 36559 ft | 439 kts | 142° |
| 2026-05-05 14:35 | 50.45793 | 0.50768 | 36267 ft | 437 kts | 142° |
| 2026-05-05 14:36 | 50.43422 | 0.53760 | 35679 ft | 438 kts | 143° |
| 2026-05-05 14:36 | 50.41043 | 0.56759 | 34925 ft | 440 kts | 143° |
| 2026-05-05 14:36 | 50.38649 | 0.59772 | 34120 ft | 443 kts | 143° |
| 2026-05-05 14:36 | 50.36239 | 0.62802 | 33206 ft | 445 kts | 142° |
| 2026-05-05 14:37 | 50.33818 | 0.65841 | 32284 ft | 446 kts | 142° |
| 2026-05-05 14:37 | 50.31392 | 0.68882 | 31371 ft | 447 kts | 142° |
| 2026-05-05 14:37 | 50.28964 | 0.71924 | 30488 ft | 447 kts | 142° |
| 2026-05-05 14:37 | 50.26530 | 0.74968 | 29477 ft | 449 kts | 142° |
| 2026-05-05 14:38 | 50.24044 | 0.78073 | 28688 ft | 463 kts | 142° |
| 2026-05-05 14:38 | 50.21597 | 0.81126 | 28430 ft | 446 kts | 142° |
| 2026-05-05 14:38 | 50.19204 | 0.84111 | 27549 ft | 436 kts | 142° |
| 2026-05-05 14:38 | 50.16843 | 0.87049 | 26397 ft | 434 kts | 142° |
| 2026-05-05 14:39 | 50.14497 | 0.89961 | 25489 ft | 427 kts | 142° |
| 2026-05-05 14:39 | 50.12209 | 0.92799 | 24966 ft | 412 kts | 142° |
| 2026-05-05 14:39 | 50.10010 | 0.95512 | 24566 ft | 396 kts | 142° |
| 2026-05-05 14:39 | 50.07879 | 0.98121 | 24061 ft | 384 kts | 142° |
| 2026-05-05 14:40 | 50.05763 | 1.00501 | 23748 ft | 367 kts | 148° |
| 2026-05-05 14:40 | 50.03590 | 1.02390 | 23529 ft | 349 kts | 154° |
| 2026-05-05 14:40 | 50.01419 | 1.04012 | 23127 ft | 350 kts | 154° |
| 2026-05-05 14:40 | 49.99138 | 1.05726 | 22733 ft | 379 kts | 154° |
| 2026-05-05 14:41 | 49.96675 | 1.07581 | 22407 ft | 406 kts | 154° |
| 2026-05-05 14:41 | 49.94080 | 1.09534 | 22370 ft | 423 kts | 154° |
| 2026-05-05 14:41 | 49.91380 | 1.11562 | 22337 ft | 434 kts | 154° |
| 2026-05-05 14:41 | 49.88712 | 1.13563 | 22167 ft | 418 kts | 154° |
| 2026-05-05 14:42 | 49.86157 | 1.15479 | 21936 ft | 397 kts | 153° |
| 2026-05-05 14:42 | 49.83735 | 1.17294 | 21538 ft | 380 kts | 153° |
| 2026-05-05 14:42 | 49.81368 | 1.19068 | 20752 ft | 375 kts | 153° |
| 2026-05-05 14:42 | 49.79031 | 1.20818 | 19918 ft | 372 kts | 153° |
| 2026-05-05 14:43 | 49.76707 | 1.22556 | 19134 ft | 369 kts | 153° |
| 2026-05-05 14:43 | 49.74408 | 1.24273 | 18443 ft | 364 kts | 153° |
| 2026-05-05 14:43 | 49.72169 | 1.25941 | 18086 ft | 351 kts | 153° |
| 2026-05-05 14:43 | 49.69970 | 1.27579 | 17700 ft | 354 kts | 153° |
| 2026-05-05 14:44 | 49.67733 | 1.29245 | 17304 ft | 358 kts | 153° |
| 2026-05-05 14:44 | 49.65503 | 1.30902 | 16919 ft | 354 kts | 153° |
| 2026-05-05 14:44 | 49.63295 | 1.32540 | 16537 ft | 350 kts | 153° |
| 2026-05-05 14:44 | 49.61102 | 1.34165 | 16162 ft | 349 kts | 152° |
| 2026-05-05 14:45 | 49.58915 | 1.35785 | 15784 ft | 348 kts | 153° |
| 2026-05-05 14:45 | 49.56736 | 1.37393 | 15416 ft | 347 kts | 152° |
| 2026-05-05 14:45 | 49.54561 | 1.39001 | 15043 ft | 348 kts | 152° |
| 2026-05-05 14:45 | 49.52409 | 1.40592 | 14665 ft | 347 kts | 152° |
| 2026-05-05 14:46 | 49.50249 | 1.42185 | 14294 ft | 342 kts | 152° |
| 2026-05-05 14:46 | 49.48118 | 1.43754 | 13933 ft | 338 kts | 152° |
| 2026-05-05 14:46 | 49.45987 | 1.45323 | 13558 ft | 340 kts | 152° |
| 2026-05-05 14:46 | 49.43867 | 1.46882 | 13316 ft | 333 kts | 152° |
| 2026-05-05 14:47 | 49.41814 | 1.48387 | 13206 ft | 321 kts | 152° |
| 2026-05-05 14:47 | 49.39842 | 1.49830 | 12909 ft | 308 kts | 152° |
| 2026-05-05 14:47 | 49.37926 | 1.51236 | 12351 ft | 304 kts | 152° |
| 2026-05-05 14:47 | 49.36025 | 1.52630 | 11829 ft | 298 kts | 152° |
| 2026-05-05 14:48 | 49.34171 | 1.53988 | 11526 ft | 297 kts | 152° |
| 2026-05-05 14:48 | 49.32301 | 1.55367 | 11200 ft | 298 kts | 149° |
| 2026-05-05 14:48 | 49.30722 | 1.57315 | 10882 ft | 287 kts | 124° |
| 2026-05-05 14:48 | 49.29888 | 1.60009 | 10588 ft | 279 kts | 99° |
| 2026-05-05 14:49 | 49.29708 | 1.62971 | 10306 ft | 280 kts | 92° |
| 2026-05-05 14:49 | 49.29593 | 1.65941 | 10015 ft | 277 kts | 92° |
| 2026-05-05 14:49 | 49.29475 | 1.68873 | 9729 ft | 275 kts | 92° |
| 2026-05-05 14:49 | 49.29352 | 1.71786 | 9435 ft | 274 kts | 92° |
| 2026-05-05 14:50 | 49.29066 | 1.74672 | 9156 ft | 276 kts | 107° |
| 2026-05-05 14:50 | 49.28135 | 1.77244 | 8875 ft | 280 kts | 128° |
| 2026-05-05 14:50 | 49.26744 | 1.79347 | 8584 ft | 281 kts | 134° |
| 2026-05-05 14:50 | 49.25347 | 1.81371 | 8297 ft | 279 kts | 134° |
| 2026-05-05 14:51 | 49.23920 | 1.83447 | 8007 ft | 280 kts | 133° |
| 2026-05-05 14:51 | 49.22513 | 1.85502 | 7717 ft | 279 kts | 133° |
| 2026-05-05 14:51 | 49.21131 | 1.87525 | 7436 ft | 277 kts | 134° |
| 2026-05-05 14:51 | 49.19748 | 1.89558 | 7157 ft | 275 kts | 133° |
| 2026-05-05 14:52 | 49.18367 | 1.91578 | 6874 ft | 276 kts | 133° |
| 2026-05-05 14:52 | 49.16975 | 1.93613 | 6587 ft | 277 kts | 134° |
| 2026-05-05 14:52 | 49.15583 | 1.95648 | 6303 ft | 276 kts | 134° |
| 2026-05-05 14:53 | 49.14224 | 1.97635 | 6021 ft | 275 kts | 134° |
| 2026-05-05 14:53 | 49.12845 | 1.99644 | 5742 ft | 273 kts | 133° |
| 2026-05-05 14:53 | 49.11469 | 2.01640 | 5432 ft | 272 kts | 133° |
| 2026-05-05 14:53 | 49.10112 | 2.03615 | 5243 ft | 270 kts | 133° |
| 2026-05-05 14:54 | 49.08746 | 2.05610 | 5060 ft | 273 kts | 133° |
| 2026-05-05 14:54 | 49.07385 | 2.07593 | 4779 ft | 269 kts | 133° |
| 2026-05-05 14:54 | 49.06044 | 2.09543 | 4491 ft | 267 kts | 133° |
| 2026-05-05 14:54 | 49.04713 | 2.11476 | 4377 ft | 264 kts | 133° |
| 2026-05-05 14:55 | 49.03408 | 2.13363 | 4288 ft | 253 kts | 133° |
| 2026-05-05 14:55 | 49.02162 | 2.15164 | 4174 ft | 240 kts | 133° |
| 2026-05-05 14:55 | 49.01052 | 2.16937 | 4115 ft | 219 kts | 118° |
| 2026-05-05 14:55 | 49.00610 | 2.18995 | 4048 ft | 197 kts | 86° |
| 2026-05-05 14:56 | 49.00700 | 2.21045 | 3792 ft | 193 kts | 81° |
| 2026-05-05 14:56 | 49.00826 | 2.23062 | 3616 ft | 186 kts | 81° |
| 2026-05-05 14:56 | 49.00967 | 2.25082 | 3607 ft | 194 kts | 79° |
| 2026-05-05 14:56 | 49.01102 | 2.27081 | 3642 ft | 183 kts | 82° |
| 2026-05-05 14:57 | 49.01202 | 2.28943 | 3472 ft | 173 kts | 81° |
| 2026-05-05 14:57 | 49.01300 | 2.30745 | 3254 ft | 168 kts | 81° |
| 2026-05-05 14:57 | 49.01394 | 2.32492 | 3032 ft | 163 kts | 81° |
| 2026-05-05 14:57 | 49.01484 | 2.34169 | 2807 ft | 155 kts | 80° |
| 2026-05-05 14:58 | 49.01566 | 2.35728 | 2612 ft | 139 kts | 79° |
| 2026-05-05 14:58 | 49.01641 | 2.37115 | 2420 ft | 123 kts | 79° |
| 2026-05-05 14:58 | 49.01722 | 2.38490 | 2264 ft | 136 kts | 79° |
| 2026-05-05 14:58 | 49.01792 | 2.39890 | 2079 ft | 131 kts | 79° |
| 2026-05-05 14:59 | 49.01868 | 2.41277 | 1908 ft | 132 kts | 78° |
| 2026-05-05 14:59 | 49.01937 | 2.42631 | 1730 ft | 125 kts | 78° |
| 2026-05-05 14:59 | 49.02013 | 2.43969 | 1560 ft | 129 kts | 78° |
| 2026-05-05 14:59 | 49.02086 | 2.45342 | 1390 ft | 129 kts | 80° |
| 2026-05-05 15:00 | 49.02159 | 2.46690 | 1200 ft | 128 kts | 80° |
| 2026-05-05 15:00 | 49.02210 | 2.47619 | 1073 ft | 135 kts | 79° |
| 2026-05-05 15:00 | 49.02302 | 2.49465 | 809 ft | 131 kts | 82° |
| 2026-05-05 15:00 | 49.02384 | 2.50841 | 637 ft | 129 kts | 82° |
| 2026-05-05 15:01 | 49.02451 | 2.52182 | 483 ft | 127 kts | 79° |
| 2026-05-05 15:01 | 49.02526 | 2.53520 | 380 ft | 122 kts | 80° |
| 2026-05-05 15:01 | 49.02592 | 2.54591 | 367 ft | 74 kts | 86° |
| 2026-05-05 15:01 | 49.02595 | 2.55184 | 372 ft | 41 kts | 103° |
| 2026-05-05 15:02 | 49.02503 | 2.55512 | 361 ft | 28 kts | 118° |
| 2026-05-05 15:02 | 49.02362 | 2.55620 | 365 ft | 19 kts | 169° |
| 2026-05-05 15:02 | 49.02237 | 2.55639 | 365 ft | 21 kts | 176° |
| 2026-05-05 15:02 | 49.02063 | 2.55658 | 357 ft | 26 kts | 175° |
| 2026-05-05 15:03 | 49.01902 | 2.55650 | 363 ft | 17 kts | 229° |
| 2026-05-05 15:03 | 49.01880 | 2.55474 | 355 ft | 17 kts | 268° |
| 2026-05-05 15:03 | 49.01872 | 2.55259 | 355 ft | 23 kts | 266° |
| 2026-05-05 15:03 | 49.01857 | 2.54996 | 355 ft | 26 kts | 266° |
| 2026-05-05 15:04 | 49.01841 | 2.54709 | 355 ft | 28 kts | 265° |
| 2026-05-05 15:04 | 49.01828 | 2.54410 | 357 ft | 29 kts | 267° |
| 2026-05-05 15:04 | 49.01809 | 2.54097 | 354 ft | 30 kts | 269° |
| 2026-05-05 15:04 | 49.01735 | 2.53811 | 360 ft | 28 kts | 230° |
| 2026-05-05 15:05 | 49.01529 | 2.53874 | 361 ft | 1 kts | 143° |
| 2026-05-05 15:05 | 49.01508 | 2.53910 | 361 ft | 9 kts | 129° |
| 2026-05-05 15:05 | 49.01432 | 2.53993 | 354 ft | 16 kts | 165° |
| 2026-05-05 15:06 | 49.01304 | 2.54030 | 355 ft | 20 kts | 191° |
| 2026-05-05 15:06 | 49.01178 | 2.54022 | 355 ft | 13 kts | 174° |
| 2026-05-05 15:06 | 49.01184 | 2.53962 | 355 ft | 9 kts | 327° |
| 2026-05-05 15:06 | 49.01239 | 2.53943 | 361 ft | 8 kts | 358° |
| 2026-05-05 15:07 | 49.01247 | 2.53943 | 360 ft | 0 kts | 358° |